Time;durP1;ratioP1;P1;durP2;ratioP2;P2;SDS_P1;SDS_P2;PMS_P1;PMS_P2;Temp;Humidity;BMP_temperature;BMP_pressure;BME280_temperature;BME280_humidity;BME280_pressure;Samples;Min_cycle;Max_cycle;Signal;HPM_P1;HPM_P2
2021/06/07 00:00:21;;;;;;;6.05;3.40;;;13.40;93.20;;;;;;4956456;29;20110;-72
2021/06/07 00:02:47;;;;;;;6.13;3.38;;;13.40;93.30;;;;;;4956530;29;20495;-67
2021/06/07 00:05:13;;;;;;;5.32;3.35;;;13.40;93.30;;;;;;4956717;29;20035;-70
2021/06/07 00:07:39;;;;;;;5.70;3.45;;;13.40;93.40;;;;;;4956060;28;20027;-68
2021/06/07 00:10:08;;;;;;;6.32;3.40;;;13.30;93.40;;;;;;4957673;29;20484;-75
2021/06/07 00:12:34;;;;;;;6.97;3.60;;;13.30;93.50;;;;;;4956476;29;20028;-74
2021/06/07 00:14:59;;;;;;;7.40;3.67;;;13.30;93.60;;;;;;4955757;29;20027;-69
2021/06/07 00:17:25;;;;;;;5.18;3.60;;;13.30;93.60;;;;;;4956530;29;20098;-70
2021/06/07 00:19:50;;;;;;;5.60;3.50;;;13.30;93.50;;;;;;4956426;29;20086;-69
2021/06/07 00:22:16;;;;;;;5.20;3.38;;;13.30;93.50;;;;;;4955853;29;20472;-71
2021/06/07 00:24:42;;;;;;;6.35;3.78;;;13.20;93.50;;;;;;4956519;29;20468;-71
2021/06/07 00:27:08;;;;;;;5.25;3.15;;;13.20;93.50;;;;;;4955845;28;20031;-73
2021/06/07 00:29:34;;;;;;;4.28;3.67;;;13.20;93.50;;;;;;4955782;29;20039;-69
2021/06/07 00:32:00;;;;;;;5.38;3.50;;;13.10;93.50;;;;;;4955965;29;20019;-72
2021/06/07 00:34:25;;;;;;;5.57;3.38;;;13.10;93.40;;;;;;4956254;28;20166;-68
2021/06/07 00:36:51;;;;;;;7.22;3.22;;;13.00;93.30;;;;;;4955104;29;20055;-72
2021/06/07 00:39:17;;;;;;;7.10;3.70;;;13.00;93.30;;;;;;4956130;29;20023;-75
2021/06/07 00:41:46;;;;;;;9.90;3.45;;;13.00;93.30;;;;;;4956026;29;20023;-69
2021/06/07 00:44:15;;;;;;;7.53;3.53;;;13.00;93.20;;;;;;4955341;29;20495;-68
2021/06/07 00:46:41;;;;;;;6.97;3.67;;;13.00;93.20;;;;;;4956048;28;20046;-69
2021/06/07 00:49:08;;;;;;;6.18;3.90;;;12.90;93.00;;;;;;4955721;29;20110;-75
2021/06/07 00:51:34;;;;;;;4.63;3.35;;;12.90;93.00;;;;;;4955373;29;20033;-71
2021/06/07 00:54:00;;;;;;;8.10;3.40;;;12.90;93.00;;;;;;4955505;28;20024;-73
2021/06/07 00:56:25;;;;;;;5.47;3.65;;;12.90;93.10;;;;;;4955736;28;20107;-72
2021/06/07 00:58:51;;;;;;;4.05;2.80;;;12.90;93.10;;;;;;4954864;29;20024;-74
2021/06/07 01:01:20;;;;;;;4.65;3.50;;;12.80;93.00;;;;;;4955758;29;20439;-73
2021/06/07 01:03:48;;;;;;;7.53;3.60;;;12.80;93.00;;;;;;4954789;28;20016;-72
2021/06/07 01:06:14;;;;;;;4.13;3.20;;;12.80;93.10;;;;;;4955484;28;20078;-70
2021/06/07 01:08:40;;;;;;;7.47;3.33;;;12.70;93.10;;;;;;4955805;29;20107;-70
2021/06/07 01:11:07;;;;;;;5.53;3.33;;;12.70;93.10;;;;;;4954535;28;20035;-71
2021/06/07 01:13:34;;;;;;;4.85;2.90;;;12.70;93.10;;;;;;4955813;28;20034;-75
2021/06/07 01:15:59;;;;;;;8.75;3.10;;;12.60;93.10;;;;;;4955040;28;20030;-74
2021/06/07 01:18:28;;;;;;;5.05;2.80;;;12.60;93.10;;;;;;4954828;29;20015;-75
2021/06/07 01:20:56;;;;;;;4.00;3.13;;;12.60;93.00;;;;;;4955062;29;20090;-75
2021/06/07 01:23:22;;;;;;;5.30;3.40;;;12.60;92.90;;;;;;4955382;29;20023;-67
2021/06/07 01:25:48;;;;;;;4.10;3.08;;;12.60;92.90;;;;;;4954347;29;20054;-73
2021/06/07 01:28:17;;;;;;;5.05;2.75;;;12.60;92.90;;;;;;4955174;29;20054;-68
2021/06/07 01:30:46;;;;;;;3.00;2.67;;;12.60;92.90;;;;;;4955110;28;20091;-76
2021/06/07 01:33:14;;;;;;;3.20;2.70;;;12.60;92.90;;;;;;4954527;29;20082;-69
2021/06/07 01:35:40;;;;;;;7.85;2.72;;;12.60;92.80;;;;;;4938014;29;20194;-67
2021/06/07 01:38:07;;;;;;;7.70;2.88;;;12.50;92.80;;;;;;4954698;28;20523;-67
2021/06/07 01:40:36;;;;;;;10.35;5.20;;;12.60;92.80;;;;;;4954480;29;20039;-68
2021/06/07 01:43:02;;;;;;;3.85;2.70;;;12.60;92.70;;;;;;4954693;29;20060;-70
2021/06/07 01:45:29;;;;;;;4.88;2.65;;;12.50;92.60;;;;;;4954692;28;20116;-71
2021/06/07 01:47:59;;;;;;;5.30;2.60;;;12.60;92.40;;;;;;4953745;28;20019;-69
2021/06/07 01:50:25;;;;;;;2.80;2.47;;;12.60;92.30;;;;;;4954896;29;20399;-68
2021/06/07 01:52:52;;;;;;;3.97;2.50;;;12.50;92.10;;;;;;4953939;29;20476;-69
2021/06/07 01:55:20;;;;;;;2.72;2.53;;;12.50;92.00;;;;;;4954680;29;20445;-67
2021/06/07 01:57:48;;;;;;;5.57;2.95;;;12.50;91.80;;;;;;4954698;29;20102;-70
2021/06/07 02:00:37;;;;;;;4.13;2.33;;;12.50;91.70;;;;;;4954220;29;20106;-68
2021/06/07 02:03:04;;;;;;;3.33;2.53;;;12.50;91.60;;;;;;4953918;29;20043;-68
2021/06/07 02:05:31;;;;;;;4.28;2.42;;;12.60;91.40;;;;;;4954867;29;20066;-69
2021/06/07 02:08:00;;;;;;;6.05;2.63;;;12.60;91.40;;;;;;4953567;29;20027;-69
2021/06/07 02:10:28;;;;;;;4.45;2.20;;;12.60;91.20;;;;;;4954475;29;20050;-68
2021/06/07 02:12:54;;;;;;;3.97;2.70;;;12.60;91.10;;;;;;4954301;29;20055;-69
2021/06/07 02:15:20;;;;;;;6.95;3.20;;;12.60;91.10;;;;;;4953915;29;20024;-71
2021/06/07 02:17:46;;;;;;;3.97;2.30;;;12.60;91.00;;;;;;4954261;28;20024;-69
2021/06/07 02:20:15;;;;;;;5.50;2.35;;;12.60;91.00;;;;;;4954535;29;20027;-69
2021/06/07 02:22:42;;;;;;;3.10;2.20;;;12.60;91.00;;;;;;4953800;28;20106;-71
2021/06/07 02:25:11;;;;;;;2.63;2.00;;;12.60;91.10;;;;;;4954175;29;20028;-70
2021/06/07 02:27:36;;;;;;;3.30;2.22;;;12.60;91.10;;;;;;4954421;28;20457;-69
2021/06/07 02:30:12;;;;;;;4.90;2.58;;;12.60;91.20;;;;;;4953358;29;20063;-69
2021/06/07 02:32:38;;;;;;;4.93;2.60;;;12.60;91.30;;;;;;4954441;29;20038;-73
2021/06/07 02:35:06;;;;;;;4.53;2.55;;;12.50;91.30;;;;;;4953233;29;20035;-69
2021/06/07 02:37:32;;;;;;;5.70;3.00;;;12.60;91.50;;;;;;4954152;28;20396;-71
2021/06/07 02:39:57;;;;;;;4.68;2.75;;;12.60;91.50;;;;;;4954054;29;20031;-70
2021/06/07 02:42:23;;;;;;;6.22;2.83;;;12.60;91.60;;;;;;4953947;29;20023;-71
2021/06/07 02:44:49;;;;;;;7.93;3.50;;;12.50;91.80;;;;;;4954055;29;20023;-69
2021/06/07 02:47:16;;;;;;;5.63;3.10;;;12.50;91.90;;;;;;4954135;28;20023;-69
2021/06/07 02:49:42;;;;;;;4.53;2.90;;;12.50;91.90;;;;;;4953627;29;20420;-70
2021/06/07 02:52:08;;;;;;;5.18;2.72;;;12.50;92.10;;;;;;4953878;28;20023;-70
2021/06/07 02:54:34;;;;;;;3.40;3.05;;;12.50;92.10;;;;;;4954356;29;20033;-70
2021/06/07 02:56:59;;;;;;;8.27;3.00;;;12.40;92.20;;;;;;4953192;28;20034;-68
2021/06/07 02:59:25;;;;;;;6.63;3.92;;;12.40;92.30;;;;;;4957556;29;20464;-70
2021/06/07 03:01:51;;;;;;;4.88;3.38;;;12.40;92.40;;;;;;4957803;29;20099;-70
2021/06/07 03:04:16;;;;;;;5.40;3.50;;;12.40;92.40;;;;;;4957228;29;20035;-71
2021/06/07 03:06:42;;;;;;;5.60;3.10;;;12.40;92.50;;;;;;4957704;29;20099;-70
2021/06/07 03:09:07;;;;;;;5.32;2.95;;;12.30;92.50;;;;;;4957436;29;20114;-69
2021/06/07 03:11:33;;;;;;;4.70;3.15;;;12.30;92.50;;;;;;4957096;29;20431;-71
2021/06/07 03:13:59;;;;;;;4.43;3.15;;;12.30;92.60;;;;;;4957379;29;20078;-70
2021/06/07 03:16:24;;;;;;;4.63;3.33;;;12.30;92.60;;;;;;4957648;29;20023;-69
2021/06/07 03:18:50;;;;;;;5.97;3.25;;;12.30;92.70;;;;;;4956767;29;20038;-68
2021/06/07 03:21:15;;;;;;;3.85;3.25;;;12.30;92.70;;;;;;4957454;29;20016;-69
2021/06/07 03:23:42;;;;;;;7.65;3.10;;;12.40;92.70;;;;;;4957708;28;20027;-72
2021/06/07 03:26:08;;;;;;;5.22;3.47;;;12.30;92.70;;;;;;4939258;29;20032;-70
2021/06/07 03:28:35;;;;;;;4.00;3.00;;;12.30;92.80;;;;;;4957634;29;20106;-70
2021/06/07 03:31:00;;;;;;;5.18;3.17;;;12.30;92.80;;;;;;4957056;29;20075;-73
2021/06/07 03:33:27;;;;;;;5.57;3.17;;;12.30;92.80;;;;;;4956721;29;20047;-69
2021/06/07 03:35:56;;;;;;;7.60;3.65;;;12.30;92.80;;;;;;4957067;29;20065;-71
2021/06/07 03:38:22;;;;;;;6.30;3.88;;;12.30;92.80;;;;;;4956756;29;20505;-70
2021/06/07 03:40:52;;;;;;;10.75;6.70;;;12.30;92.80;;;;;;4957022;28;20042;-70
2021/06/07 03:43:19;;;;;;;3.70;3.35;;;12.30;92.80;;;;;;4939947;29;20027;-71
2021/06/07 03:45:45;;;;;;;4.00;2.90;;;12.40;92.80;;;;;;4956284;29;20170;-69
2021/06/07 03:48:11;;;;;;;4.20;2.88;;;12.40;92.70;;;;;;4957132;29;20487;-71
2021/06/07 03:50:39;;;;;;;4.72;2.88;;;12.40;92.60;;;;;;4956992;29;20042;-69
2021/06/07 03:53:06;;;;;;;5.40;3.50;;;12.50;92.50;;;;;;4955965;29;20031;-73
2021/06/07 03:55:33;;;;;;;4.65;3.35;;;12.50;92.30;;;;;;4956998;29;20027;-68
2021/06/07 03:57:59;;;;;;;4.90;2.63;;;12.50;92.20;;;;;;4956573;29;20081;-73
2021/06/07 04:00:28;;;;;;;7.85;2.80;;;12.50;91.90;;;;;;4956743;29;20027;-69
2021/06/07 04:02:54;;;;;;;3.25;2.90;;;12.50;91.70;;;;;;4956478;29;20078;-68
2021/06/07 04:05:19;;;;;;;4.10;2.45;;;12.70;91.70;;;;;;4956773;29;20031;-69
2021/06/07 04:07:45;;;;;;;3.30;2.45;;;12.70;91.50;;;;;;4955776;28;20023;-69
2021/06/07 04:10:15;;;;;;;3.85;2.70;;;12.80;91.30;;;;;;4956068;28;20398;-68
2021/06/07 04:12:41;;;;;;;4.32;2.40;;;12.90;91.10;;;;;;4956650;29;20075;-70
2021/06/07 04:15:08;;;;;;;4.43;2.63;;;13.00;91.10;;;;;;4955693;29;20031;-68
2021/06/07 04:17:33;;;;;;;7.43;3.30;;;13.00;90.90;;;;;;4956478;28;20098;-68
2021/06/07 04:19:59;;;;;;;3.08;2.58;;;13.00;90.90;;;;;;4956319;29;20479;-69
2021/06/07 04:22:25;;;;;;;4.88;2.60;;;13.00;90.80;;;;;;4956348;29;20086;-69
2021/06/07 04:24:51;;;;;;;4.50;2.65;;;13.00;90.80;;;;;;4939030;29;20027;-69
2021/06/07 04:27:16;;;;;;;4.30;2.53;;;13.00;90.70;;;;;;4956256;28;20029;-71
2021/06/07 04:29:43;;;;;;;4.95;3.13;;;13.10;90.70;;;;;;4955780;29;20031;-75
2021/06/07 04:32:10;;;;;;;3.33;2.63;;;13.10;90.90;;;;;;4956301;29;20035;-76
2021/06/07 04:34:36;;;;;;;5.10;3.00;;;13.00;90.70;;;;;;4955764;29;20074;-72
2021/06/07 04:37:06;;;;;;;4.32;2.85;;;13.00;90.70;;;;;;4949862;29;20392;-75
2021/06/07 04:39:31;;;;;;;4.10;2.75;;;13.00;90.80;;;;;;4946256;29;20055;-77
2021/06/07 04:41:57;;;;;;;4.50;2.78;;;13.00;90.80;;;;;;4954882;28;20837;-68
2021/06/07 04:44:23;;;;;;;4.57;2.90;;;13.00;91.00;;;;;;4943527;29;20366;-72
2021/06/07 04:46:49;;;;;;;4.15;2.80;;;13.00;91.10;;;;;;4944859;29;20020;-75
2021/06/07 04:49:15;;;;;;;2.92;2.60;;;13.00;91.40;;;;;;4947541;29;20039;-71
2021/06/07 04:51:40;;;;;;;3.72;2.83;;;13.00;91.20;;;;;;4945027;29;20030;-73
2021/06/07 04:54:06;;;;;;;5.35;2.75;;;13.00;91.40;;;;;;4952660;29;20019;-71
2021/06/07 04:56:32;;;;;;;4.20;2.90;;;13.00;91.30;;;;;;4955140;29;20035;-75
2021/06/07 04:58:58;;;;;;;5.03;3.08;;;13.10;91.30;;;;;;4954829;29;20031;-68
2021/06/07 05:01:24;;;;;;;4.15;3.03;;;13.10;91.40;;;;;;4955759;28;20483;-70
2021/06/07 05:03:49;;;;;;;5.50;2.88;;;13.10;91.10;;;;;;4954761;29;20063;-69
2021/06/07 05:06:15;;;;;;;3.40;2.55;;;13.20;90.80;;;;;;4955172;29;20023;-70
2021/06/07 05:08:41;;;;;;;5.18;2.63;;;13.20;90.80;;;;;;4955373;29;20027;-72
2021/06/07 05:11:06;;;;;;;4.57;2.28;;;13.30;90.80;;;;;;4933244;28;20047;-70
2021/06/07 05:13:32;;;;;;;4.38;2.42;;;13.30;90.20;;;;;;4949403;29;20384;-74
2021/06/07 05:15:58;;;;;;;2.53;1.92;;;13.40;90.00;;;;;;4954833;29;20428;-73
2021/06/07 05:18:23;;;;;;;4.18;2.00;;;13.50;89.70;;;;;;4942256;29;20027;-70
2021/06/07 05:20:49;;;;;;;5.22;1.75;;;13.60;88.90;;;;;;4934617;29;20027;-69
2021/06/07 05:23:15;;;;;;;2.40;1.67;;;13.70;88.80;;;;;;4950114;29;20027;-72
2021/06/07 05:25:43;;;;;;;2.97;1.60;;;13.80;88.20;;;;;;4954226;28;20050;-70
2021/06/07 05:28:12;;;;;;;4.38;1.50;;;13.90;86.70;;;;;;4955010;29;20031;-68
2021/06/07 05:30:39;;;;;;;4.85;1.70;;;13.90;85.90;;;;;;4954902;29;20043;-67
2021/06/07 05:33:06;;;;;;;2.58;1.50;;;14.00;85.70;;;;;;4954139;29;20035;-66
2021/06/07 05:35:37;;;;;;;4.68;1.50;;;14.10;85.90;;;;;;4955027;29;20034;-65
2021/06/07 05:38:02;;;;;;;3.63;1.40;;;14.10;85.40;;;;;;4951702;28;20046;-64
2021/06/07 05:40:29;;;;;;;2.42;1.40;;;14.20;85.10;;;;;;4954451;29;20035;-69
2021/06/07 05:42:55;;;;;;;1.50;1.38;;;14.30;85.50;;;;;;4948042;28;20099;-66
2021/06/07 05:45:21;;;;;;;2.42;1.30;;;14.40;84.80;;;;;;4933858;29;20110;-61
2021/06/07 05:47:49;;;;;;;3.95;1.88;;;14.40;84.30;;;;;;4934267;29;20020;-67
2021/06/07 05:50:18;;;;;;;2.63;1.30;;;14.50;84.00;;;;;;4935195;29;20036;-68
2021/06/07 05:52:47;;;;;;;4.30;1.50;;;14.60;83.60;;;;;;4934377;29;20739;-69
2021/06/07 05:55:24;;;;;;;1.83;1.20;;;14.70;83.80;;;;;;4946088;28;20035;-66
2021/06/07 05:57:53;;;;;;;2.50;1.30;;;14.80;82.80;;;;;;4954345;28;20102;-68
2021/06/07 06:00:21;;;;;;;2.47;1.02;;;14.90;81.60;;;;;;4953995;29;20106;-67
2021/06/07 06:02:47;;;;;;;2.90;1.08;;;15.00;81.30;;;;;;4954344;29;20475;-64
2021/06/07 06:05:13;;;;;;;2.88;1.17;;;15.10;81.00;;;;;;4953943;29;20027;-65
2021/06/07 06:07:39;;;;;;;3.67;1.30;;;15.10;80.70;;;;;;4952965;29;20036;-65
2021/06/07 06:10:05;;;;;;;2.78;1.00;;;15.20;81.00;;;;;;4953998;29;20047;-63
2021/06/07 06:12:31;;;;;;;3.05;1.30;;;15.30;79.60;;;;;;4954727;29;20062;-64
2021/06/07 06:14:57;;;;;;;4.47;1.30;;;15.50;79.50;;;;;;4953631;28;20043;-63
2021/06/07 06:17:23;;;;;;;2.58;1.38;;;15.60;78.80;;;;;;4954421;29;20016;-63
2021/06/07 06:19:48;;;;;;;4.93;1.30;;;15.60;78.70;;;;;;4954136;29;20074;-63
2021/06/07 06:22:15;;;;;;;3.08;1.10;;;15.70;78.20;;;;;;4936256;29;20023;-64
2021/06/07 06:24:41;;;;;;;2.22;1.17;;;15.80;77.70;;;;;;4954211;29;20027;-63
2021/06/07 06:27:09;;;;;;;2.00;1.17;;;15.90;77.60;;;;;;4953768;28;20031;-65
2021/06/07 06:29:36;;;;;;;2.53;1.23;;;15.90;77.10;;;;;;4954376;29;20027;-69
2021/06/07 06:32:03;;;;;;;1.92;1.15;;;16.00;77.60;;;;;;4955975;28;20031;-67
2021/06/07 06:34:29;;;;;;;1.35;1.17;;;16.00;77.10;;;;;;4960135;28;20043;-67
2021/06/07 06:36:54;;;;;;;3.72;1.20;;;16.10;76.40;;;;;;4959498;28;20070;-67
2021/06/07 06:39:20;;;;;;;3.15;1.30;;;16.20;76.80;;;;;;4960086;28;20059;-64
2021/06/07 06:41:45;;;;;;;1.60;1.00;;;16.20;76.00;;;;;;4959783;28;20030;-66
2021/06/07 06:44:11;;;;;;;1.42;0.90;;;16.30;75.60;;;;;;4960670;29;20559;-65
2021/06/07 06:46:37;;;;;;;3.40;1.30;;;16.40;74.70;;;;;;4960647;28;20484;-66
2021/06/07 06:49:03;;;;;;;2.85;1.25;;;16.50;74.30;;;;;;4959636;29;20526;-68
2021/06/07 06:51:29;;;;;;;4.40;1.70;;;16.60;74.50;;;;;;4960454;28;20035;-68
2021/06/07 06:53:54;;;;;;;2.63;1.05;;;16.60;74.10;;;;;;4960333;29;20427;-72
2021/06/07 06:56:20;;;;;;;2.83;1.00;;;16.80;73.00;;;;;;4959880;28;20099;-68
2021/06/07 06:58:46;;;;;;;2.97;1.17;;;16.80;70.60;;;;;;4960299;28;20483;-64
2021/06/07 07:01:13;;;;;;;2.88;1.15;;;16.90;71.00;;;;;;4960435;28;20023;-65
2021/06/07 07:03:39;;;;;;;4.20;1.13;;;16.90;70.80;;;;;;4959815;28;20023;-66
2021/06/07 07:06:05;;;;;;;2.78;1.30;;;17.00;70.20;;;;;;4959886;28;20038;-66
2021/06/07 07:08:30;;;;;;;4.35;1.50;;;17.10;70.00;;;;;;4960615;29;20464;-65
2021/06/07 07:10:56;;;;;;;3.45;1.10;;;17.20;70.20;;;;;;4959391;29;20039;-66
2021/06/07 07:13:22;;;;;;;2.67;1.10;;;17.30;71.10;;;;;;4960650;28;20035;-66
2021/06/07 07:15:48;;;;;;;3.03;1.10;;;17.40;70.30;;;;;;4959939;28;20031;-65
2021/06/07 07:18:14;;;;;;;1.48;0.95;;;17.50;69.70;;;;;;4959556;29;20027;-71
2021/06/07 07:20:42;;;;;;;2.45;0.93;;;17.60;69.10;;;;;;4960337;29;20384;-66
2021/06/07 07:23:07;;;;;;;3.47;1.33;;;17.60;69.80;;;;;;4959966;29;20032;-68
2021/06/07 07:25:34;;;;;;;2.22;1.20;;;17.70;67.60;;;;;;4959615;29;20034;-66
2021/06/07 07:27:59;;;;;;;2.95;1.60;;;17.70;65.80;;;;;;4959891;28;20023;-66
2021/06/07 07:30:30;;;;;;;1.50;1.00;;;17.70;64.50;;;;;;4959933;28;20394;-66
2021/06/07 07:32:55;;;;;;;1.50;1.25;;;17.60;65.90;;;;;;4960203;29;20031;-66
2021/06/07 07:35:23;;;;;;;2.38;1.30;;;17.70;65.80;;;;;;4960238;29;20487;-66
2021/06/07 07:37:49;;;;;;;2.50;1.10;;;17.70;65.60;;;;;;4958910;28;20551;-67
2021/06/07 07:40:18;;;;;;;5.78;1.35;;;17.80;64.70;;;;;;4960123;29;20031;-70
2021/06/07 07:42:43;;;;;;;2.88;1.25;;;17.80;65.10;;;;;;4959870;29;20424;-66
2021/06/07 07:45:10;;;;;;;3.25;1.15;;;17.90;65.30;;;;;;4955945;28;20107;-68
2021/06/07 07:47:37;;;;;;;2.63;1.40;;;17.90;64.60;;;;;;4957000;29;20420;-71
2021/06/07 07:50:11;;;;;;;4.90;1.30;;;17.90;64.30;;;;;;4956563;29;20039;-68
2021/06/07 07:52:41;;;;;;;2.55;1.15;;;18.00;65.00;;;;;;4956423;29;20024;-65
2021/06/07 07:55:08;;;;;;;3.80;1.20;;;18.10;64.80;;;;;;4956617;29;20027;-64
2021/06/07 07:57:34;;;;;;;2.88;1.23;;;18.10;64.60;;;;;;4956827;28;20031;-66
2021/06/07 07:59:59;;;;;;;1.95;1.20;;;18.20;64.00;;;;;;4956025;29;20027;-65
2021/06/07 08:02:25;;;;;;;2.13;1.05;;;18.30;63.50;;;;;;4956929;28;20151;-64
2021/06/07 08:04:50;;;;;;;3.67;1.20;;;18.40;64.00;;;;;;4956428;28;20027;-65
2021/06/07 08:07:16;;;;;;;5.45;1.65;;;18.40;63.80;;;;;;4956032;29;20470;-64
2021/06/07 08:09:42;;;;;;;3.35;1.20;;;18.40;63.80;;;;;;4939542;29;20020;-65
2021/06/07 08:12:08;;;;;;;2.78;1.27;;;18.40;64.00;;;;;;4956208;28;20452;-65
2021/06/07 08:14:33;;;;;;;2.60;1.27;;;18.40;63.70;;;;;;4956023;29;20103;-64
2021/06/07 08:16:59;;;;;;;3.53;1.30;;;18.50;63.90;;;;;;4956202;28;20491;-64
2021/06/07 08:19:25;;;;;;;4.05;1.48;;;18.50;64.70;;;;;;4956444;29;20066;-64
2021/06/07 08:21:52;;;;;;;4.43;1.90;;;18.60;64.70;;;;;;4938377;29;20399;-65
2021/06/07 08:24:17;;;;;;;4.50;1.30;;;18.70;64.60;;;;;;4956384;29;20543;-65
2021/06/07 08:26:43;;;;;;;3.05;1.40;;;18.70;63.80;;;;;;4955813;29;20059;-65
2021/06/07 08:29:09;;;;;;;4.13;1.25;;;18.80;64.10;;;;;;4956188;29;20417;-65
2021/06/07 08:31:36;;;;;;;5.47;1.63;;;18.80;64.70;;;;;;4956449;28;20042;-68
2021/06/07 08:34:02;;;;;;;2.33;1.13;;;18.90;65.00;;;;;;4955394;29;20094;-66
2021/06/07 08:36:28;;;;;;;3.85;1.40;;;19.00;65.10;;;;;;4956170;28;20039;-67
2021/06/07 08:38:54;;;;;;;2.53;1.20;;;19.10;64.20;;;;;;4955956;29;20061;-70
2021/06/07 08:41:19;;;;;;;3.22;1.38;;;19.10;64.60;;;;;;4955649;28;20019;-67
2021/06/07 08:43:45;;;;;;;5.25;1.73;;;19.20;65.30;;;;;;4955758;29;20023;-67
2021/06/07 08:46:11;;;;;;;3.00;1.25;;;19.30;63.80;;;;;;4955933;29;20027;-67
2021/06/07 08:48:37;;;;;;;3.60;1.20;;;19.40;63.50;;;;;;4955468;29;20054;-69
2021/06/07 08:51:04;;;;;;;3.42;1.80;;;19.40;63.10;;;;;;4955506;29;20587;-69
2021/06/07 08:53:30;;;;;;;2.67;1.15;;;19.50;63.10;;;;;;4955778;29;20031;-67
2021/06/07 08:55:56;;;;;;;2.45;1.38;;;19.50;62.80;;;;;;4953665;28;20031;-68
2021/06/07 08:58:21;;;;;;;2.90;1.30;;;19.50;62.70;;;;;;4955936;29;20027;-72
2021/06/07 09:00:47;;;;;;;3.78;1.40;;;19.50;61.70;;;;;;4955653;29;20038;-68
2021/06/07 09:03:15;;;;;;;2.63;1.27;;;19.50;62.30;;;;;;4954983;29;20016;-68
2021/06/07 09:05:43;;;;;;;2.80;1.30;;;19.60;62.80;;;;;;4955591;29;20027;-66
2021/06/07 09:08:10;;;;;;;3.40;1.13;;;19.70;62.70;;;;;;4955577;29;20136;-66
2021/06/07 09:10:44;;;;;;;5.07;1.40;;;19.70;62.60;;;;;;4954954;29;20082;-68
2021/06/07 09:13:11;;;;;;;3.70;1.30;;;19.80;61.60;;;;;;4938339;29;20023;-68
2021/06/07 09:15:39;;;;;;;1.70;1.05;;;19.90;61.80;;;;;;4955683;29;20027;-67
2021/06/07 09:18:09;;;;;;;2.35;1.10;;;19.90;61.40;;;;;;4954413;29;20103;-67
2021/06/07 09:20:36;;;;;;;2.38;1.52;;;20.00;60.70;;;;;;4955368;29;20027;-65
2021/06/07 09:23:14;;;;;;;3.50;1.45;;;20.00;60.70;;;;;;4954275;29;20070;-69
2021/06/07 09:25:47;;;;;;;1.45;1.10;;;20.10;60.30;;;;;;4955545;29;20028;-71
2021/06/07 09:28:18;;;;;;;3.25;1.30;;;20.10;59.60;;;;;;4955492;29;20031;-67
2021/06/07 09:31:07;;;;;;;1.95;0.95;;;20.10;58.50;;;;;;4954213;29;20074;-67
2021/06/07 09:33:41;;;;;;;3.33;1.45;;;20.20;59.40;;;;;;4955109;28;20027;-72
2021/06/07 09:36:28;;;;;;;2.30;1.20;;;20.30;60.00;;;;;;4950233;28;20043;-68
2021/06/07 09:38:59;;;;;;;2.83;1.20;;;20.30;58.70;;;;;;4954316;28;20043;-68
2021/06/07 09:41:42;;;;;;;2.10;1.10;;;20.40;59.30;;;;;;4954977;29;20420;-65
2021/06/07 09:44:08;;;;;;;2.78;1.30;;;20.40;58.50;;;;;;4953765;29;20058;-66
2021/06/07 09:46:34;;;;;;;2.17;1.40;;;20.40;58.80;;;;;;4937656;29;20472;-66
2021/06/07 09:49:10;;;;;;;2.92;1.20;;;20.40;59.30;;;;;;4954656;29;20035;-65
2021/06/07 09:51:38;;;;;;;4.00;1.42;;;20.40;58.10;;;;;;4954245;29;20399;-66
2021/06/07 09:54:04;;;;;;;3.95;1.27;;;20.50;58.80;;;;;;4954338;29;20074;-65
2021/06/07 09:56:30;;;;;;;2.53;1.30;;;20.50;58.90;;;;;;4954271;29;20034;-65
2021/06/07 09:58:56;;;;;;;3.55;1.30;;;20.70;59.70;;;;;;4954618;29;20458;-65
2021/06/07 10:01:28;;;;;;;3.03;1.50;;;20.80;59.10;;;;;;4954688;29;20027;-65
2021/06/07 10:03:59;;;;;;;2.97;1.20;;;20.90;59.20;;;;;;4953689;29;20099;-64
2021/06/07 10:06:34;;;;;;;4.60;1.73;;;21.00;58.60;;;;;;4954298;28;20023;-67
2021/06/07 10:09:07;;;;;;;3.08;1.50;;;21.10;57.50;;;;;;4954142;29;20027;-66
2021/06/07 10:11:37;;;;;;;2.30;1.38;;;21.10;57.90;;;;;;4954133;29;20114;-65
2021/06/07 10:14:11;;;;;;;3.03;1.42;;;21.10;57.40;;;;;;4954284;28;20380;-65
2021/06/07 10:16:38;;;;;;;2.13;1.30;;;21.10;56.40;;;;;;4954467;29;20031;-65
2021/06/07 10:19:06;;;;;;;1.63;1.10;;;21.10;55.60;;;;;;4953377;29;20019;-64
2021/06/07 10:21:32;;;;;;;2.58;1.50;;;21.00;54.60;;;;;;4954131;29;20024;-64
2021/06/07 10:23:58;;;;;;;3.33;1.45;;;21.00;54.20;;;;;;4936682;29;20039;-65
2021/06/07 10:26:24;;;;;;;4.25;1.30;;;21.00;54.30;;;;;;4953605;28;20054;-71
2021/06/07 10:28:54;;;;;;;1.90;1.33;;;21.00;54.50;;;;;;4954036;29;20037;-72
2021/06/07 10:31:22;;;;;;;2.00;1.30;;;20.90;54.70;;;;;;4954162;29;20031;-68
2021/06/07 10:34:05;;;;;;;3.25;1.30;;;20.90;55.40;;;;;;4953275;29;20031;-73
2021/06/07 10:36:33;;;;;;;3.17;1.17;;;20.90;55.40;;;;;;4954436;28;20039;-73
2021/06/07 10:39:18;;;;;;;4.03;1.30;;;21.00;56.90;;;;;;4952902;29;20051;-68
2021/06/07 10:41:50;;;;;;;4.60;1.50;;;21.10;56.40;;;;;;4954040;29;20106;-65
2021/06/07 10:44:37;;;;;;;3.78;1.25;;;21.10;56.50;;;;;;4954052;29;20054;-66
2021/06/07 10:47:11;;;;;;;3.58;1.25;;;21.30;56.20;;;;;;4953032;29;20031;-71
2021/06/07 10:49:50;;;;;;;2.42;1.40;;;21.30;56.10;;;;;;4954063;29;20162;-65
2021/06/07 10:52:17;;;;;;;3.75;1.38;;;21.30;57.00;;;;;;4954063;29;20035;-66
2021/06/07 10:54:58;;;;;;;3.03;1.27;;;21.40;55.40;;;;;;4953535;29;20055;-70
2021/06/07 10:57:26;;;;;;;2.07;1.30;;;21.50;54.50;;;;;;4954047;29;20031;-68
2021/06/07 11:00:09;;;;;;;2.30;1.10;;;21.50;54.10;;;;;;4953256;29;20767;-66
2021/06/07 11:02:38;;;;;;;2.83;1.42;;;21.40;54.60;;;;;;4954284;29;20050;-68
2021/06/07 11:05:15;;;;;;;2.08;1.10;;;21.50;54.50;;;;;;4953632;29;20086;-68
2021/06/07 11:08:29;;;;;;;3.58;1.42;;;21.60;55.00;;;;;;4953277;29;20020;-69
2021/06/07 11:11:13;;;;;;;2.80;1.45;;;21.60;54.70;;;;;;4950288;29;20043;-67
2021/06/07 11:13:49;;;;;;;1.55;1.00;;;21.70;54.20;;;;;;4953989;29;20078;-70
2021/06/07 11:16:33;;;;;;;3.28;1.17;;;21.70;53.30;;;;;;4953738;29;20030;-67
2021/06/07 11:19:01;;;;;;;2.17;1.40;;;21.70;51.60;;;;;;4954548;28;20105;-68
2021/06/07 11:21:29;;;;;;;2.40;1.05;;;21.70;52.20;;;;;;4957019;29;20019;-67
2021/06/07 11:23:55;;;;;;;1.38;1.15;;;21.70;53.90;;;;;;4957135;29;20031;-70
2021/06/07 11:26:39;;;;;;;1.63;1.42;;;21.90;55.30;;;;;;4957359;28;20424;-68
2021/06/07 11:29:07;;;;;;;6.45;1.33;;;22.10;53.00;;;;;;4956271;29;20058;-67
2021/06/07 11:31:33;;;;;;;3.05;1.10;;;22.10;52.40;;;;;;4957247;29;20067;-69
2021/06/07 11:34:07;;;;;;;1.45;1.10;;;22.20;52.80;;;;;;4957086;28;20066;-70
2021/06/07 11:36:51;;;;;;;1.67;1.17;;;22.20;51.80;;;;;;4956659;28;20387;-70
2021/06/07 11:39:18;;;;;;;2.17;1.10;;;22.20;53.30;;;;;;4957073;29;20047;-67
2021/06/07 11:41:59;;;;;;;3.88;1.52;;;22.30;53.70;;;;;;4939763;29;20391;-66
2021/06/07 11:44:46;;;;;;;3.10;1.33;;;22.40;53.30;;;;;;4957109;29;20091;-65
2021/06/07 11:47:22;;;;;;;3.28;1.55;;;22.30;53.40;;;;;;4956717;28;20027;-69
2021/06/07 11:49:59;;;;;;;2.50;1.00;;;22.40;53.10;;;;;;4955747;29;20023;-66
2021/06/07 11:52:34;;;;;;;1.55;1.05;;;22.50;52.20;;;;;;4957134;29;20023;-67
2021/06/07 11:55:01;;;;;;;1.65;0.90;;;22.70;51.50;;;;;;4956545;29;20485;-65
2021/06/07 11:57:27;;;;;;;3.70;1.30;;;22.80;51.00;;;;;;4956134;28;20441;-65
2021/06/07 11:59:59;;;;;;;5.00;1.20;;;22.80;52.00;;;;;;4956593;29;20059;-65
2021/06/07 12:02:26;;;;;;;4.70;1.23;;;22.80;52.30;;;;;;4956779;29;20110;-65
2021/06/07 12:04:53;;;;;;;2.25;1.52;;;22.90;52.40;;;;;;4955907;29;20036;-73
2021/06/07 12:07:20;;;;;;;2.08;1.15;;;23.00;52.00;;;;;;4956323;29;20384;-73
2021/06/07 12:09:49;;;;;;;2.25;1.23;;;22.90;52.40;;;;;;4956492;29;20031;-74
2021/06/07 12:12:15;;;;;;;1.92;1.20;;;23.10;51.80;;;;;;4955901;29;20027;-70
2021/06/07 12:14:43;;;;;;;2.42;1.20;;;23.10;53.00;;;;;;4956576;29;20023;-73
2021/06/07 12:17:17;;;;;;;3.42;1.73;;;23.30;51.70;;;;;;4955742;28;20015;-67
2021/06/07 12:19:56;;;;;;;2.75;1.63;;;23.30;50.60;;;;;;4956642;29;20113;-76
2021/06/07 12:22:49;;;;;;;2.67;1.60;;;23.20;51.10;;;;;;4957067;29;20031;-76
2021/06/07 12:25:32;;;;;;;2.05;1.45;;;23.20;52.60;;;;;;4953504;29;20038;-76
2021/06/07 12:28:23;;;;;;;3.40;1.40;;;23.30;51.70;;;;;;4955971;29;20035;-74
2021/06/07 12:30:56;;;;;;;1.63;1.13;;;23.30;50.50;;;;;;4955676;28;20566;-75
2021/06/07 12:33:25;;;;;;;1.73;1.23;;;23.20;50.00;;;;;;4955623;29;20032;-76
2021/06/07 12:35:53;;;;;;;2.70;1.20;;;23.30;49.60;;;;;;4955766;28;20076;-75
2021/06/07 12:38:20;;;;;;;1.85;0.85;;;23.30;49.90;;;;;;4955401;29;20058;-74
2021/06/07 12:40:48;;;;;;;1.08;1.00;;;23.40;50.30;;;;;;4955754;29;20042;-74
2021/06/07 12:43:17;;;;;;;1.42;0.93;;;23.50;49.70;;;;;;4955919;29;20473;-70
2021/06/07 12:45:45;;;;;;;1.58;0.85;;;23.50;48.20;;;;;;4955417;29;20024;-73
2021/06/07 12:48:22;;;;;;;1.98;1.45;;;23.60;48.80;;;;;;4956034;29;20074;-73
2021/06/07 12:50:53;;;;;;;5.70;1.25;;;23.70;48.40;;;;;;4955702;28;20035;-71
2021/06/07 12:53:20;;;;;;;4.07;1.57;;;23.70;49.20;;;;;;4955611;29;20066;-67